sensor_id;sensor_type;location;lat;lon;timestamp;pressure;altitude;pressure_sealevel;temperature;humidity
3254;BME280;1639;42.804;23.342;2024-01-25T00:01:20;74600.28;;;-148.52;91.07
3254;BME280;1639;42.804;23.342;2024-01-25T00:03:46;74594.09;;;-148.52;92.45
3254;BME280;1639;42.804;23.342;2024-01-25T00:06:12;74589.94;;;-148.52;92.12
3254;BME280;1639;42.804;23.342;2024-01-25T00:08:37;74569.25;;;-148.52;92.00
3254;BME280;1639;42.804;23.342;2024-01-25T00:11:03;74565.13;;;-148.52;91.29
3254;BME280;1639;42.804;23.342;2024-01-25T00:13:28;74575.47;;;-148.52;90.02
3254;BME280;1639;42.804;23.342;2024-01-25T00:15:54;74585.81;;;-148.52;89.24
3254;BME280;1639;42.804;23.342;2024-01-25T00:18:20;74579.59;;;-148.52;89.57
3254;BME280;1639;42.804;23.342;2024-01-25T00:20:45;74581.66;;;-148.52;90.66
3254;BME280;1639;42.804;23.342;2024-01-25T00:23:11;74556.84;;;-148.52;90.30
3254;BME280;1639;42.804;23.342;2024-01-25T00:25:37;74556.84;;;-148.52;90.65
3254;BME280;1639;42.804;23.342;2024-01-25T00:28:02;74546.50;;;-148.52;91.22
3254;BME280;1639;42.804;23.342;2024-01-25T00:30:27;74554.78;;;-148.52;92.34
3254;BME280;1639;42.804;23.342;2024-01-25T00:32:53;74625.13;;;-148.52;99.87
3254;BME280;1639;42.804;23.342;2024-01-25T00:35:18;74573.38;;;-148.52;100.00
3254;BME280;1639;42.804;23.342;2024-01-25T00:37:44;74573.38;;;-148.52;98.59
3254;BME280;1639;42.804;23.342;2024-01-25T00:40:10;74575.47;;;-148.52;93.29
3254;BME280;1639;42.804;23.342;2024-01-25T00:42:42;74567.19;;;-148.52;90.52
3254;BME280;1639;42.804;23.342;2024-01-25T00:45:08;74560.97;;;-148.52;89.95
3254;BME280;1639;42.804;23.342;2024-01-25T00:47:34;74558.91;;;-148.52;88.77
3254;BME280;1639;42.804;23.342;2024-01-25T00:50:00;74565.13;;;-148.52;88.45
3254;BME280;1639;42.804;23.342;2024-01-25T00:52:25;74581.66;;;-148.52;90.65
3254;BME280;1639;42.804;23.342;2024-01-25T00:54:51;74575.47;;;-148.52;91.54
3254;BME280;1639;42.804;23.342;2024-01-25T00:57:17;74560.97;;;-148.52;91.04
3254;BME280;1639;42.804;23.342;2024-01-25T00:59:43;74544.44;;;-148.52;91.49
3254;BME280;1639;42.804;23.342;2024-01-25T01:02:12;74532.00;;;-148.52;92.20
3254;BME280;1639;42.804;23.342;2024-01-25T01:04:39;74540.28;;;-148.52;92.39
3254;BME280;1639;42.804;23.342;2024-01-25T01:07:04;74527.88;;;-148.52;92.74
3254;BME280;1639;42.804;23.342;2024-01-25T01:09:30;74519.59;;;-148.52;92.86
3254;BME280;1639;42.804;23.342;2024-01-25T01:11:55;74538.22;;;-148.52;93.42
3254;BME280;1639;42.804;23.342;2024-01-25T01:14:21;74523.72;;;-148.52;92.81
3254;BME280;1639;42.804;23.342;2024-01-25T01:16:46;74498.91;;;-148.52;91.36
3254;BME280;1639;42.804;23.342;2024-01-25T01:19:12;74478.22;;;-148.52;90.69
3254;BME280;1639;42.804;23.342;2024-01-25T01:21:38;74469.94;;;-148.52;88.92
3254;BME280;1639;42.804;23.342;2024-01-25T01:24:04;74469.94;;;-148.52;88.94
3254;BME280;1639;42.804;23.342;2024-01-25T01:26:29;74469.94;;;-148.52;87.40
3254;BME280;1639;42.804;23.342;2024-01-25T01:28:55;74461.66;;;-148.52;87.46
3254;BME280;1639;42.804;23.342;2024-01-25T01:31:21;74474.06;;;-148.52;86.44
3254;BME280;1639;42.804;23.342;2024-01-25T01:33:46;74463.72;;;-148.52;86.42
3254;BME280;1639;42.804;23.342;2024-01-25T01:36:12;74461.66;;;-148.52;85.76
3254;BME280;1639;42.804;23.342;2024-01-25T01:38:37;74463.72;;;-148.52;85.00
3254;BME280;1639;42.804;23.342;2024-01-25T01:41:03;74467.88;;;-148.52;81.92
3254;BME280;1639;42.804;23.342;2024-01-25T01:43:28;74455.47;;;-148.52;79.30
3254;BME280;1639;42.804;23.342;2024-01-25T01:46:00;74453.38;;;-148.52;77.11
3254;BME280;1639;42.804;23.342;2024-01-25T01:48:29;74443.03;;;-148.52;76.22
3254;BME280;1639;42.804;23.342;2024-01-25T01:50:54;74428.56;;;-148.52;76.76
3254;BME280;1639;42.804;23.342;2024-01-25T01:53:20;74418.22;;;-148.52;76.63
3254;BME280;1639;42.804;23.342;2024-01-25T01:55:46;74418.22;;;-148.52;76.26
3254;BME280;1639;42.804;23.342;2024-01-25T01:58:13;74407.88;;;-148.52;76.08
3254;BME280;1639;42.804;23.342;2024-01-25T02:00:39;74405.81;;;-148.52;75.17
3254;BME280;1639;42.804;23.342;2024-01-25T02:03:06;74405.81;;;-148.52;75.11
3254;BME280;1639;42.804;23.342;2024-01-25T02:05:32;74416.16;;;-148.52;77.29
3254;BME280;1639;42.804;23.342;2024-01-25T02:07:57;74407.88;;;-148.52;79.40
3254;BME280;1639;42.804;23.342;2024-01-25T02:10:22;74405.81;;;-148.52;79.59
3254;BME280;1639;42.804;23.342;2024-01-25T02:12:48;74405.81;;;-148.52;79.61
3254;BME280;1639;42.804;23.342;2024-01-25T02:15:13;74409.94;;;-148.52;80.14
3254;BME280;1639;42.804;23.342;2024-01-25T02:17:39;74407.88;;;-148.52;80.30
3254;BME280;1639;42.804;23.342;2024-01-25T02:20:05;74401.66;;;-148.52;80.64
3254;BME280;1639;42.804;23.342;2024-01-25T02:22:30;74383.03;;;-148.52;81.01
3254;BME280;1639;42.804;23.342;2024-01-25T02:24:56;74393.38;;;-148.52;80.78
3254;BME280;1639;42.804;23.342;2024-01-25T02:27:21;74387.19;;;-148.52;81.45
3254;BME280;1639;42.804;23.342;2024-01-25T02:29:47;74378.91;;;-148.52;81.24
3254;BME280;1639;42.804;23.342;2024-01-25T02:32:12;74387.19;;;-148.52;80.83
3254;BME280;1639;42.804;23.342;2024-01-25T02:34:37;74405.81;;;-148.52;80.82
3254;BME280;1639;42.804;23.342;2024-01-25T02:37:03;74416.16;;;-148.52;81.47
3254;BME280;1639;42.804;23.342;2024-01-25T02:39:28;74418.22;;;-148.52;81.29
3254;BME280;1639;42.804;23.342;2024-01-25T02:41:54;74409.94;;;-148.52;81.34
3254;BME280;1639;42.804;23.342;2024-01-25T02:44:19;74403.72;;;-148.52;81.11
3254;BME280;1639;42.804;23.342;2024-01-25T02:46:44;74412.00;;;-148.52;80.07
3254;BME280;1639;42.804;23.342;2024-01-25T02:49:11;74414.09;;;-148.52;79.90
3254;BME280;1639;42.804;23.342;2024-01-25T02:51:37;74443.03;;;-148.52;81.39
3254;BME280;1639;42.804;23.342;2024-01-25T02:54:02;74414.09;;;-148.52;81.64
3254;BME280;1639;42.804;23.342;2024-01-25T02:56:28;74416.16;;;-148.52;82.39
3254;BME280;1639;42.804;23.342;2024-01-25T02:58:59;74409.94;;;-148.52;80.95
3254;BME280;1639;42.804;23.342;2024-01-25T03:01:24;74397.53;;;-148.52;79.60
3254;BME280;1639;42.804;23.342;2024-01-25T03:03:50;74387.19;;;-148.52;78.38
3254;BME280;1639;42.804;23.342;2024-01-25T03:06:15;74383.03;;;-148.52;77.87
3254;BME280;1639;42.804;23.342;2024-01-25T03:08:40;74358.22;;;-148.52;77.26
3254;BME280;1639;42.804;23.342;2024-01-25T03:11:06;74343.72;;;-148.52;77.39
3254;BME280;1639;42.804;23.342;2024-01-25T03:13:31;74339.59;;;-148.52;77.44
3254;BME280;1639;42.804;23.342;2024-01-25T03:15:57;74337.53;;;-148.52;77.28
3254;BME280;1639;42.804;23.342;2024-01-25T03:18:23;74337.53;;;-148.52;77.20
3254;BME280;1639;42.804;23.342;2024-01-25T03:20:48;74323.03;;;-148.52;77.24
3254;BME280;1639;42.804;23.342;2024-01-25T03:23:16;74314.78;;;-148.52;76.95
3254;BME280;1639;42.804;23.342;2024-01-25T03:25:41;74318.91;;;-148.52;77.59
3254;BME280;1639;42.804;23.342;2024-01-25T03:28:07;74316.84;;;-148.52;78.35
3254;BME280;1639;42.804;23.342;2024-01-25T03:30:34;74323.03;;;-148.52;78.60
3254;BME280;1639;42.804;23.342;2024-01-25T03:33:00;74314.78;;;-148.52;78.73
3254;BME280;1639;42.804;23.342;2024-01-25T03:35:25;74308.56;;;-148.52;78.72
3254;BME280;1639;42.804;23.342;2024-01-25T03:37:51;74287.88;;;-148.52;77.94
3254;BME280;1639;42.804;23.342;2024-01-25T03:40:16;74265.13;;;-148.52;77.73
3254;BME280;1639;42.804;23.342;2024-01-25T03:42:41;74248.56;;;-148.52;77.17
3254;BME280;1639;42.804;23.342;2024-01-25T03:45:07;74258.91;;;-148.52;76.57
3254;BME280;1639;42.804;23.342;2024-01-25T03:47:32;74250.63;;;-148.52;76.51
3254;BME280;1639;42.804;23.342;2024-01-25T03:49:58;74279.59;;;-148.52;77.43
3254;BME280;1639;42.804;23.342;2024-01-25T03:52:25;74298.22;;;-148.52;78.43
3254;BME280;1639;42.804;23.342;2024-01-25T03:54:50;74304.44;;;-148.52;79.40
3254;BME280;1639;42.804;23.342;2024-01-25T03:57:16;74300.28;;;-148.52;78.85
3254;BME280;1639;42.804;23.342;2024-01-25T03:59:41;74296.16;;;-148.52;79.11
3254;BME280;1639;42.804;23.342;2024-01-25T04:02:06;74285.81;;;-148.52;78.90
3254;BME280;1639;42.804;23.342;2024-01-25T04:04:32;74279.59;;;-148.52;78.94
3254;BME280;1639;42.804;23.342;2024-01-25T04:06:57;74275.47;;;-148.52;78.64
3254;BME280;1639;42.804;23.342;2024-01-25T04:09:23;74273.41;;;-148.52;78.28
3254;BME280;1639;42.804;23.342;2024-01-25T04:11:48;74269.25;;;-148.52;78.25
3254;BME280;1639;42.804;23.342;2024-01-25T04:14:14;74275.47;;;-148.52;79.08
3254;BME280;1639;42.804;23.342;2024-01-25T04:16:40;74267.19;;;-148.52;79.50
3254;BME280;1639;42.804;23.342;2024-01-25T04:19:06;74267.19;;;-148.52;79.08
3254;BME280;1639;42.804;23.342;2024-01-25T04:21:32;74263.03;;;-148.52;78.42
3254;BME280;1639;42.804;23.342;2024-01-25T04:23:57;74250.63;;;-148.52;77.60
3254;BME280;1639;42.804;23.342;2024-01-25T04:26:22;74254.78;;;-148.52;77.26
3254;BME280;1639;42.804;23.342;2024-01-25T04:28:48;74273.41;;;-148.52;78.15
3254;BME280;1639;42.804;23.342;2024-01-25T04:31:14;74258.91;;;-148.52;77.79
3254;BME280;1639;42.804;23.342;2024-01-25T04:33:39;74254.78;;;-148.52;78.58
3254;BME280;1639;42.804;23.342;2024-01-25T04:36:05;74252.69;;;-148.52;78.52
3254;BME280;1639;42.804;23.342;2024-01-25T04:38:31;74246.50;;;-148.52;78.33
3254;BME280;1639;42.804;23.342;2024-01-25T04:40:56;74252.69;;;-148.52;78.62
3254;BME280;1639;42.804;23.342;2024-01-25T04:43:21;74250.63;;;-148.52;78.60
3254;BME280;1639;42.804;23.342;2024-01-25T04:45:47;74250.63;;;-148.52;78.64
3254;BME280;1639;42.804;23.342;2024-01-25T04:48:13;74246.50;;;-148.52;77.89
3254;BME280;1639;42.804;23.342;2024-01-25T04:50:38;74250.63;;;-148.52;77.44
3254;BME280;1639;42.804;23.342;2024-01-25T04:53:04;74246.50;;;-148.52;77.42
3254;BME280;1639;42.804;23.342;2024-01-25T04:55:30;74250.63;;;-148.52;77.26
3254;BME280;1639;42.804;23.342;2024-01-25T04:57:55;74260.97;;;-148.52;77.76
3254;BME280;1639;42.804;23.342;2024-01-25T05:00:22;74287.88;;;-148.52;79.08
3254;BME280;1639;42.804;23.342;2024-01-25T05:02:48;74306.50;;;-148.52;80.65
3254;BME280;1639;42.804;23.342;2024-01-25T05:05:14;74314.78;;;-148.52;82.69
3254;BME280;1639;42.804;23.342;2024-01-25T05:07:39;74310.63;;;-148.52;83.33
3254;BME280;1639;42.804;23.342;2024-01-25T05:10:05;74320.97;;;-148.52;83.52
3254;BME280;1639;42.804;23.342;2024-01-25T05:12:31;74320.97;;;-148.52;83.50
3254;BME280;1639;42.804;23.342;2024-01-25T05:14:56;74327.19;;;-148.52;84.39
3254;BME280;1639;42.804;23.342;2024-01-25T05:17:21;74331.31;;;-148.52;85.11
3254;BME280;1639;42.804;23.342;2024-01-25T05:19:47;74345.81;;;-148.52;86.64
3254;BME280;1639;42.804;23.342;2024-01-25T05:22:12;74347.88;;;-148.52;87.13
3254;BME280;1639;42.804;23.342;2024-01-25T05:24:37;74343.72;;;-148.52;88.04
3254;BME280;1639;42.804;23.342;2024-01-25T05:27:03;74341.66;;;-148.52;88.81
3254;BME280;1639;42.804;23.342;2024-01-25T05:29:28;74333.38;;;-148.52;89.18
3254;BME280;1639;42.804;23.342;2024-01-25T05:31:54;74333.38;;;-148.52;89.45
3254;BME280;1639;42.804;23.342;2024-01-25T05:34:19;74331.31;;;-148.52;90.02
3254;BME280;1639;42.804;23.342;2024-01-25T05:36:44;74323.03;;;-148.52;90.88
3254;BME280;1639;42.804;23.342;2024-01-25T05:39:10;74279.59;;;-148.52;89.40
3254;BME280;1639;42.804;23.342;2024-01-25T05:41:35;74263.03;;;-148.52;87.13
3254;BME280;1639;42.804;23.342;2024-01-25T05:44:01;74227.88;;;-148.52;83.65
3254;BME280;1639;42.804;23.342;2024-01-25T05:46:26;74213.41;;;-148.52;82.15
3254;BME280;1639;42.804;23.342;2024-01-25T05:48:52;74203.06;;;-148.52;80.05
3254;BME280;1639;42.804;23.342;2024-01-25T05:51:17;74188.56;;;-148.52;79.31
3254;BME280;1639;42.804;23.342;2024-01-25T05:53:43;74178.22;;;-148.52;78.14
3254;BME280;1639;42.804;23.342;2024-01-25T05:56:09;74176.16;;;-148.52;77.78
3254;BME280;1639;42.804;23.342;2024-01-25T05:58:34;74174.09;;;-148.52;78.29
3254;BME280;1639;42.804;23.342;2024-01-25T06:00:59;74161.69;;;-148.52;78.37
3254;BME280;1639;42.804;23.342;2024-01-25T06:03:25;74169.94;;;-148.52;78.72
3254;BME280;1639;42.804;23.342;2024-01-25T06:05:50;74172.03;;;-148.52;79.01
3254;BME280;1639;42.804;23.342;2024-01-25T06:08:16;74174.09;;;-148.52;78.80
3254;BME280;1639;42.804;23.342;2024-01-25T06:10:41;74159.59;;;-148.52;78.97
3254;BME280;1639;42.804;23.342;2024-01-25T06:13:08;74161.69;;;-148.52;79.31
3254;BME280;1639;42.804;23.342;2024-01-25T06:15:33;74167.88;;;-148.52;79.17
3254;BME280;1639;42.804;23.342;2024-01-25T06:17:58;74161.69;;;-148.52;78.94
3254;BME280;1639;42.804;23.342;2024-01-25T06:20:24;74161.69;;;-148.52;78.98
3254;BME280;1639;42.804;23.342;2024-01-25T06:22:49;74165.81;;;-148.52;78.99
3254;BME280;1639;42.804;23.342;2024-01-25T06:25:15;74155.47;;;-148.52;78.52
3254;BME280;1639;42.804;23.342;2024-01-25T06:27:40;74149.25;;;-148.52;78.21
3254;BME280;1639;42.804;23.342;2024-01-25T06:30:06;74161.69;;;-148.52;78.18
3254;BME280;1639;42.804;23.342;2024-01-25T06:32:31;74161.69;;;-148.52;78.12
3254;BME280;1639;42.804;23.342;2024-01-25T06:34:57;74180.28;;;-148.52;78.27
3254;BME280;1639;42.804;23.342;2024-01-25T06:37:22;74184.44;;;-148.52;78.33
3254;BME280;1639;42.804;23.342;2024-01-25T06:39:47;74176.16;;;-148.52;78.69
3254;BME280;1639;42.804;23.342;2024-01-25T06:42:13;74172.03;;;-148.52;78.58
3254;BME280;1639;42.804;23.342;2024-01-25T06:44:38;74172.03;;;-148.52;78.58
3254;BME280;1639;42.804;23.342;2024-01-25T06:47:04;74159.59;;;-148.52;77.71
3254;BME280;1639;42.804;23.342;2024-01-25T06:49:29;74178.22;;;-148.52;76.86
3254;BME280;1639;42.804;23.342;2024-01-25T06:51:55;74215.47;;;-148.52;76.59
3254;BME280;1639;42.804;23.342;2024-01-25T06:54:20;74223.75;;;-148.52;77.36
3254;BME280;1639;42.804;23.342;2024-01-25T06:56:45;74250.63;;;-148.52;78.00
3254;BME280;1639;42.804;23.342;2024-01-25T06:59:11;74238.22;;;-148.52;77.32
3254;BME280;1639;42.804;23.342;2024-01-25T07:01:36;74273.41;;;-148.52;78.16
3254;BME280;1639;42.804;23.342;2024-01-25T07:04:02;74275.47;;;-148.52;78.93
3254;BME280;1639;42.804;23.342;2024-01-25T07:06:28;74273.41;;;-148.52;79.67
3254;BME280;1639;42.804;23.342;2024-01-25T07:08:54;74285.81;;;-148.52;79.61
3254;BME280;1639;42.804;23.342;2024-01-25T07:11:19;74285.81;;;-148.52;79.74
3254;BME280;1639;42.804;23.342;2024-01-25T07:13:45;74275.47;;;-148.52;80.07
3254;BME280;1639;42.804;23.342;2024-01-25T07:16:11;74260.97;;;-148.52;79.92
3254;BME280;1639;42.804;23.342;2024-01-25T07:18:36;74252.69;;;-148.52;79.86
3254;BME280;1639;42.804;23.342;2024-01-25T07:21:02;74238.22;;;-148.52;79.00
3254;BME280;1639;42.804;23.342;2024-01-25T07:23:33;74225.81;;;-148.52;78.66
3254;BME280;1639;42.804;23.342;2024-01-25T07:25:58;74221.66;;;-148.52;78.44
3254;BME280;1639;42.804;23.342;2024-01-25T07:28:24;74217.53;;;-148.52;77.61
3254;BME280;1639;42.804;23.342;2024-01-25T07:30:50;74236.16;;;-148.52;78.21
3254;BME280;1639;42.804;23.342;2024-01-25T07:33:16;74225.81;;;-148.52;78.31
3254;BME280;1639;42.804;23.342;2024-01-25T07:35:42;74225.81;;;-148.52;78.72
3254;BME280;1639;42.804;23.342;2024-01-25T07:38:14;74215.47;;;-148.52;78.66
3254;BME280;1639;42.804;23.342;2024-01-25T07:40:40;74207.19;;;-148.52;78.35
3254;BME280;1639;42.804;23.342;2024-01-25T07:43:05;74205.13;;;-148.52;78.07
3254;BME280;1639;42.804;23.342;2024-01-25T07:45:31;74203.06;;;-148.52;78.18
3254;BME280;1639;42.804;23.342;2024-01-25T07:47:57;74190.63;;;-148.52;77.88
3254;BME280;1639;42.804;23.342;2024-01-25T07:50:22;74184.44;;;-148.52;77.38
3254;BME280;1639;42.804;23.342;2024-01-25T07:52:48;74176.16;;;-148.52;76.58
3254;BME280;1639;42.804;23.342;2024-01-25T07:55:15;74178.22;;;-148.52;76.10
3254;BME280;1639;42.804;23.342;2024-01-25T07:57:40;74157.53;;;-148.52;75.61
3254;BME280;1639;42.804;23.342;2024-01-25T08:00:06;74056.16;;;-148.52;73.75
3254;BME280;1639;42.804;23.342;2024-01-25T08:02:34;73942.38;;;-148.52;69.06
3254;BME280;1639;42.804;23.342;2024-01-25T08:04:59;73898.94;;;-148.52;65.39
3254;BME280;1639;42.804;23.342;2024-01-25T08:07:24;73903.09;;;-148.52;65.15
3254;BME280;1639;42.804;23.342;2024-01-25T08:09:50;73954.81;;;-148.52;66.07
3254;BME280;1639;42.804;23.342;2024-01-25T08:12:17;73992.03;;;-148.52;67.04
3254;BME280;1639;42.804;23.342;2024-01-25T08:14:43;73992.03;;;-148.52;67.92
3254;BME280;1639;42.804;23.342;2024-01-25T08:17:09;73994.09;;;-148.52;67.91
3254;BME280;1639;42.804;23.342;2024-01-25T08:19:35;73996.16;;;-148.52;68.32
3254;BME280;1639;42.804;23.342;2024-01-25T08:22:00;74012.72;;;-148.52;68.46
3254;BME280;1639;42.804;23.342;2024-01-25T08:24:26;74027.22;;;-148.52;68.34
3254;BME280;1639;42.804;23.342;2024-01-25T08:26:51;74029.28;;;-148.52;68.61
3254;BME280;1639;42.804;23.342;2024-01-25T08:29:16;74039.63;;;-148.52;68.80
3254;BME280;1639;42.804;23.342;2024-01-25T08:31:42;74035.47;;;-148.52;68.55
3254;BME280;1639;42.804;23.342;2024-01-25T08:34:07;74039.63;;;-148.52;69.51
3254;BME280;1639;42.804;23.342;2024-01-25T08:36:33;74049.97;;;-148.52;68.94
3254;BME280;1639;42.804;23.342;2024-01-25T08:38:58;74056.16;;;-148.52;68.83
3254;BME280;1639;42.804;23.342;2024-01-25T08:41:24;74058.22;;;-148.52;68.55
3254;BME280;1639;42.804;23.342;2024-01-25T08:43:49;74056.16;;;-148.52;68.51
3254;BME280;1639;42.804;23.342;2024-01-25T08:46:14;74052.03;;;-148.52;67.88
3254;BME280;1639;42.804;23.342;2024-01-25T08:48:40;74052.03;;;-148.52;67.33
3254;BME280;1639;42.804;23.342;2024-01-25T08:51:06;74043.75;;;-148.52;67.20
3254;BME280;1639;42.804;23.342;2024-01-25T08:53:33;74043.75;;;-148.52;67.36
3254;BME280;1639;42.804;23.342;2024-01-25T08:55:58;74039.63;;;-148.52;67.23
3254;BME280;1639;42.804;23.342;2024-01-25T08:58:24;74037.53;;;-148.52;66.53
3254;BME280;1639;42.804;23.342;2024-01-25T09:00:50;74033.41;;;-148.52;66.50
3254;BME280;1639;42.804;23.342;2024-01-25T09:03:15;74031.34;;;-148.52;66.61
3254;BME280;1639;42.804;23.342;2024-01-25T09:05:41;74027.22;;;-148.52;66.46
3254;BME280;1639;42.804;23.342;2024-01-25T09:08:11;74014.78;;;-148.52;66.98
3254;BME280;1639;42.804;23.342;2024-01-25T09:10:36;73973.41;;;-148.52;65.79
3254;BME280;1639;42.804;23.342;2024-01-25T09:13:02;73946.53;;;-148.52;65.29
3254;BME280;1639;42.804;23.342;2024-01-25T09:15:27;73929.97;;;-148.52;64.87
3254;BME280;1639;42.804;23.342;2024-01-25T09:17:53;73907.22;;;-148.52;64.60
3254;BME280;1639;42.804;23.342;2024-01-25T09:20:18;73911.34;;;-148.52;63.98
3254;BME280;1639;42.804;23.342;2024-01-25T09:22:43;73921.69;;;-148.52;63.99
3254;BME280;1639;42.804;23.342;2024-01-25T09:25:09;73923.78;;;-148.52;64.09
3254;BME280;1639;42.804;23.342;2024-01-25T09:27:34;73917.56;;;-148.52;64.21
3254;BME280;1639;42.804;23.342;2024-01-25T09:30:00;73932.03;;;-148.52;64.19
3254;BME280;1639;42.804;23.342;2024-01-25T09:32:25;73940.31;;;-148.52;64.41
3254;BME280;1639;42.804;23.342;2024-01-25T09:34:51;73944.47;;;-148.52;64.48
3254;BME280;1639;42.804;23.342;2024-01-25T09:37:16;73934.13;;;-148.52;65.03
3254;BME280;1639;42.804;23.342;2024-01-25T09:39:42;73927.91;;;-148.52;64.76
3254;BME280;1639;42.804;23.342;2024-01-25T09:42:08;73898.94;;;-148.52;65.00
3254;BME280;1639;42.804;23.342;2024-01-25T09:44:35;73878.25;;;-148.52;64.33
3254;BME280;1639;42.804;23.342;2024-01-25T09:47:03;73865.84;;;-148.52;64.29
3254;BME280;1639;42.804;23.342;2024-01-25T09:49:30;73859.63;;;-148.52;62.64
3254;BME280;1639;42.804;23.342;2024-01-25T09:51:56;73867.91;;;-148.52;62.28
3254;BME280;1639;42.804;23.342;2024-01-25T09:54:23;73874.13;;;-148.52;63.25
3254;BME280;1639;42.804;23.342;2024-01-25T09:56:51;73878.25;;;-148.52;63.41
3254;BME280;1639;42.804;23.342;2024-01-25T09:59:16;73876.19;;;-148.52;63.62
3254;BME280;1639;42.804;23.342;2024-01-25T10:01:43;73869.97;;;-148.52;63.86
3254;BME280;1639;42.804;23.342;2024-01-25T10:04:09;73872.06;;;-148.52;63.86
3254;BME280;1639;42.804;23.342;2024-01-25T10:06:34;73880.31;;;-148.52;63.59
3254;BME280;1639;42.804;23.342;2024-01-25T10:09:00;73865.84;;;-148.52;63.87
3254;BME280;1639;42.804;23.342;2024-01-25T10:11:25;73861.72;;;-148.52;63.32
3254;BME280;1639;42.804;23.342;2024-01-25T10:13:53;73853.44;;;-148.52;63.66
3254;BME280;1639;42.804;23.342;2024-01-25T10:16:19;73845.16;;;-148.52;63.90
3254;BME280;1639;42.804;23.342;2024-01-25T10:18:48;73845.16;;;-148.52;63.72
3254;BME280;1639;42.804;23.342;2024-01-25T10:21:14;73851.38;;;-148.52;64.08
3254;BME280;1639;42.804;23.342;2024-01-25T10:23:40;73849.28;;;-148.52;64.35
3254;BME280;1639;42.804;23.342;2024-01-25T10:26:09;73843.09;;;-148.52;64.30
3254;BME280;1639;42.804;23.342;2024-01-25T10:28:35;73838.94;;;-148.52;64.96
3254;BME280;1639;42.804;23.342;2024-01-25T10:31:02;73824.47;;;-148.52;64.55
3254;BME280;1639;42.804;23.342;2024-01-25T10:33:30;73814.13;;;-148.52;64.42
3254;BME280;1639;42.804;23.342;2024-01-25T10:35:56;73791.38;;;-148.52;65.05
3254;BME280;1639;42.804;23.342;2024-01-25T10:38:31;73793.44;;;-148.52;64.21
3254;BME280;1639;42.804;23.342;2024-01-25T10:40:59;73778.97;;;-148.52;64.42
3254;BME280;1639;42.804;23.342;2024-01-25T10:43:25;73781.03;;;-148.52;64.14
3254;BME280;1639;42.804;23.342;2024-01-25T10:45:51;73789.31;;;-148.52;64.32
3254;BME280;1639;42.804;23.342;2024-01-25T10:48:21;73789.31;;;-148.52;64.79
3254;BME280;1639;42.804;23.342;2024-01-25T10:50:46;73778.97;;;-148.52;64.33
3254;BME280;1639;42.804;23.342;2024-01-25T10:53:12;73770.69;;;-148.52;64.26
3254;BME280;1639;42.804;23.342;2024-01-25T10:55:38;73774.81;;;-148.52;64.31
3254;BME280;1639;42.804;23.342;2024-01-25T10:58:03;73785.16;;;-148.52;65.16
3254;BME280;1639;42.804;23.342;2024-01-25T11:00:31;73776.91;;;-148.52;65.17
3254;BME280;1639;42.804;23.342;2024-01-25T11:02:56;73776.91;;;-148.52;65.52
3254;BME280;1639;42.804;23.342;2024-01-25T11:05:23;73776.91;;;-148.52;65.83
3254;BME280;1639;42.804;23.342;2024-01-25T11:07:50;73743.78;;;-148.52;65.53
3254;BME280;1639;42.804;23.342;2024-01-25T11:10:19;73747.94;;;-148.52;66.06
3254;BME280;1639;42.804;23.342;2024-01-25T11:15:22;73752.06;;;-148.52;65.54
3254;BME280;1639;42.804;23.342;2024-01-25T11:17:53;73747.94;;;-148.52;65.04
3254;BME280;1639;42.804;23.342;2024-01-25T11:20:24;73729.31;;;-148.52;65.11
3254;BME280;1639;42.804;23.342;2024-01-25T11:22:56;73729.31;;;-148.52;64.74
3254;BME280;1639;42.804;23.342;2024-01-25T11:25:21;73739.66;;;-148.52;65.39
3254;BME280;1639;42.804;23.342;2024-01-25T11:27:50;73750.00;;;-148.52;64.53
3254;BME280;1639;42.804;23.342;2024-01-25T11:30:18;73754.13;;;-148.52;65.14
3254;BME280;1639;42.804;23.342;2024-01-25T11:32:46;73745.88;;;-148.52;65.64
3254;BME280;1639;42.804;23.342;2024-01-25T11:35:11;73762.41;;;-148.52;65.06
3254;BME280;1639;42.804;23.342;2024-01-25T11:37:41;73758.28;;;-148.52;65.84
3254;BME280;1639;42.804;23.342;2024-01-25T11:40:07;73770.69;;;-148.52;66.63
3254;BME280;1639;42.804;23.342;2024-01-25T11:42:33;73776.91;;;-148.52;65.74
3254;BME280;1639;42.804;23.342;2024-01-25T11:44:58;73774.81;;;-148.52;66.01
3254;BME280;1639;42.804;23.342;2024-01-25T11:47:24;73774.81;;;-148.52;66.67
3254;BME280;1639;42.804;23.342;2024-01-25T11:49:49;73770.69;;;-148.52;66.90
3254;BME280;1639;42.804;23.342;2024-01-25T11:52:14;73752.06;;;-148.52;68.08
3254;BME280;1639;42.804;23.342;2024-01-25T11:54:41;73754.13;;;-148.52;68.52
3254;BME280;1639;42.804;23.342;2024-01-25T11:57:06;73750.00;;;-148.52;67.32
3254;BME280;1639;42.804;23.342;2024-01-25T11:59:32;73698.28;;;-148.52;72.44
3254;BME280;1639;42.804;23.342;2024-01-25T12:01:58;73679.66;;;-148.52;62.69
3254;BME280;1639;42.804;23.342;2024-01-25T12:04:24;73677.59;;;-148.52;62.74
3254;BME280;1639;42.804;23.342;2024-01-25T12:06:50;73698.28;;;-148.52;61.27
3254;BME280;1639;42.804;23.342;2024-01-25T12:09:15;73714.84;;;-148.52;61.52
3254;BME280;1639;42.804;23.342;2024-01-25T12:11:41;73718.97;;;-148.52;61.56
3254;BME280;1639;42.804;23.342;2024-01-25T12:14:08;73729.31;;;-148.52;61.76
3254;BME280;1639;42.804;23.342;2024-01-25T12:16:34;73735.53;;;-148.52;62.25
3254;BME280;1639;42.804;23.342;2024-01-25T12:18:59;73739.66;;;-148.52;62.29
3254;BME280;1639;42.804;23.342;2024-01-25T12:21:25;73723.09;;;-148.52;62.36
3254;BME280;1639;42.804;23.342;2024-01-25T12:23:50;73696.22;;;-148.52;63.03
3254;BME280;1639;42.804;23.342;2024-01-25T12:26:17;73673.47;;;-148.52;61.10
3254;BME280;1639;42.804;23.342;2024-01-25T12:28:43;73644.50;;;-148.52;61.21
3254;BME280;1639;42.804;23.342;2024-01-25T12:31:08;73627.97;;;-148.52;60.22
3254;BME280;1639;42.804;23.342;2024-01-25T12:33:34;73603.13;;;-148.52;61.38
3254;BME280;1639;42.804;23.342;2024-01-25T12:36:01;73588.66;;;-148.52;61.47
3254;BME280;1639;42.804;23.342;2024-01-25T12:38:27;73559.69;;;-148.52;60.66
3254;BME280;1639;42.804;23.342;2024-01-25T12:40:54;73561.75;;;-148.52;58.57
3254;BME280;1639;42.804;23.342;2024-01-25T12:43:20;73547.28;;;-148.52;56.44
3254;BME280;1639;42.804;23.342;2024-01-25T12:45:48;73524.53;;;-148.52;58.05